Terminal Aerodrome Forecast
Issued by NWS

Home | Current Version | Previous Version | Text Only | Print | Product List | Glossary On
Versions: 1 2 3 4 5 6 7 8 9 10 11 12 13 14 15 16 17 18 19 20 21 22 23 24 25 26
000
FTUS44 KOUN 290520
TAFGAG
TAF
KGAG 290520Z 2906/3006 20004KT P6SM OVC100
     FM291400 18010KT P6SM BKN100
     FM291800 19013G20KT P6SM SCT050 PROB30 2918/2924 4SM -RA
      BKN050=

USA.gov is the U.S. government's official web portal to all federal, state and local government web resources and services.